Time;durP1;ratioP1;P1;durP2;ratioP2;P2;SDS_P1;SDS_P2;PMS_P1;PMS_P2;Temp;Humidity;BMP_temperature;BMP_pressure;BME280_temperature;BME280_humidity;BME280_pressure;Samples;Min_cycle;Max_cycle;Signal;HPM_P1;HPM_P2
2021/01/08 00:01:56;;;;;;;17.10;10.68;;;;;;;1.92;72.63;98571.56;5098090;28;20044;-65
2021/01/08 00:04:23;;;;;;;15.32;9.88;;;;;;;1.91;72.43;98575.09;5096866;28;20054;-65
2021/01/08 00:06:54;;;;;;;15.45;10.27;;;;;;;1.83;72.58;98577.59;5098662;28;20044;-65
2021/01/08 00:09:21;;;;;;;23.70;13.40;;;;;;;1.86;72.82;98572.13;5097858;28;20044;-65
2021/01/08 00:11:53;;;;;;;19.38;10.88;;;;;;;1.88;72.84;98566.78;5096979;28;20070;-65
2021/01/08 00:14:20;;;;;;;14.95;9.60;;;;;;;1.80;72.88;98571.88;5095654;28;20044;-65
2021/01/08 00:16:47;;;;;;;15.73;11.45;;;;;;;1.77;73.07;98572.16;5095229;28;20494;-65
2021/01/08 00:19:14;;;;;;;16.52;10.73;;;;;;;1.74;73.33;98570.66;5096135;28;20071;-65
2021/01/08 00:21:43;;;;;;;19.05;12.55;;;;;;;1.81;73.59;98566.50;5096668;28;20051;-65
2021/01/08 00:24:11;;;;;;;20.52;12.90;;;;;;;1.87;73.67;98565.94;5096451;28;20490;-65
2021/01/08 00:26:38;;;;;;;17.75;11.05;;;;;;;1.74;73.58;98561.03;5098234;28;20036;-65
2021/01/08 00:29:05;;;;;;;15.82;11.70;;;;;;;1.80;73.60;98566.66;5099503;28;20048;-65
2021/01/08 00:31:36;;;;;;;16.38;10.70;;;;;;;1.91;73.70;98558.66;5101502;28;20047;-65
2021/01/08 00:34:04;;;;;;;28.73;17.50;;;;;;;1.98;73.64;98559.72;5101125;28;20051;-65
2021/01/08 00:36:31;;;;;;;20.02;11.73;;;;;;;1.95;73.60;98557.41;5101296;28;20048;-65
2021/01/08 00:38:59;;;;;;;13.77;9.65;;;;;;;1.95;73.48;98555.59;5100637;28;20044;-65
2021/01/08 00:41:29;;;;;;;16.08;10.93;;;;;;;1.93;73.60;98554.94;5100103;28;20052;-65
2021/01/08 00:43:57;;;;;;;17.05;11.05;;;;;;;2.00;73.69;98552.59;5100241;28;20048;-65
2021/01/08 00:46:31;;;;;;;18.95;12.50;;;;;;;2.04;73.38;98558.31;5101353;28;20048;-65
2021/01/08 00:48:59;;;;;;;14.48;10.00;;;;;;;1.94;73.22;98556.56;5099102;28;20052;-65
2021/01/08 00:51:26;;;;;;;20.08;12.23;;;;;;;1.84;73.53;98555.00;5098279;28;20048;-65
2021/01/08 00:53:53;;;;;;;13.70;9.93;;;;;;;1.86;73.21;98556.47;5098656;28;20054;-65
2021/01/08 00:56:22;;;;;;;14.00;9.13;;;;;;;1.84;73.93;98548.00;5097864;28;20085;-65
2021/01/08 00:58:53;;;;;;;26.00;14.90;;;;;;;1.88;73.71;98554.56;5096190;28;20051;-65
2021/01/08 01:01:21;;;;;;;12.70;8.55;;;;;;;1.85;73.54;98559.22;5097201;28;20490;-65
2021/01/08 01:03:49;;;;;;;15.45;10.07;;;;;;;1.91;73.63;98554.25;5095282;28;20445;-65
2021/01/08 01:06:21;;;;;;;12.85;8.93;;;;;;;1.96;73.62;98556.44;5095873;28;20135;-65
2021/01/08 01:08:48;;;;;;;12.75;9.05;;;;;;;1.94;73.38;98558.38;5095857;28;20097;-65
2021/01/08 01:11:15;;;;;;;11.65;8.32;;;;;;;1.86;73.53;98563.47;5096269;28;20409;-65
2021/01/08 01:13:43;;;;;;;12.45;8.63;;;;;;;1.74;73.77;98549.78;5098825;28;20051;-65
2021/01/08 01:16:10;;;;;;;11.93;8.43;;;;;;;1.82;73.62;98552.50;5098219;28;20506;-65
2021/01/08 01:18:38;;;;;;;12.60;8.75;;;;;;;1.85;73.69;98554.03;5098519;28;20040;-65
2021/01/08 01:21:07;;;;;;;11.38;8.18;;;;;;;1.84;73.42;98550.59;5096539;28;20050;-65
2021/01/08 01:23:34;;;;;;;9.85;7.65;;;;;;;1.86;73.58;98560.88;5096668;28;20040;-65
2021/01/08 01:26:01;;;;;;;12.13;8.32;;;;;;;1.86;73.59;98555.66;5097264;28;20044;-65
2021/01/08 01:28:28;;;;;;;13.73;8.40;;;;;;;1.90;73.80;98559.63;5098300;28;20589;-65
2021/01/08 01:30:55;;;;;;;12.45;8.65;;;;;;;1.92;73.76;98555.91;5101732;28;20050;-65
2021/01/08 01:33:22;;;;;;;12.70;8.60;;;;;;;1.91;73.54;98562.06;5103579;28;20044;-65
2021/01/08 01:35:49;;;;;;;13.55;8.77;;;;;;;1.88;73.67;98557.16;5102365;28;20040;-65
2021/01/08 01:38:16;;;;;;;13.13;8.80;;;;;;;1.94;73.79;98561.78;5103967;28;20048;-65
2021/01/08 01:40:43;;;;;;;11.57;7.80;;;;;;;1.93;73.81;98561.94;5102949;28;20044;-65
2021/01/08 01:43:09;;;;;;;11.82;8.40;;;;;;;1.92;73.68;98561.13;5102031;28;20071;-65
2021/01/08 01:45:36;;;;;;;10.00;7.75;;;;;;;1.93;73.70;98561.94;5101455;28;20147;-65
2021/01/08 01:48:05;;;;;;;12.63;8.38;;;;;;;1.96;73.62;98557.28;5103010;28;20080;-66
2021/01/08 01:50:32;;;;;;;14.77;9.50;;;;;;;1.95;73.67;98558.22;5103560;28;20078;-65
2021/01/08 01:52:59;;;;;;;12.02;8.20;;;;;;;1.98;73.91;98560.53;5103246;28;20428;-65
2021/01/08 01:55:26;;;;;;;12.45;8.63;;;;;;;2.01;73.73;98566.44;5102494;28;20047;-65
2021/01/08 01:57:54;;;;;;;12.02;9.10;;;;;;;2.03;74.05;98562.72;5102545;28;20039;-65
2021/01/08 02:00:21;;;;;;;13.07;9.00;;;;;;;2.00;73.97;98568.25;5103846;28;20059;-65
2021/01/08 02:02:51;;;;;;;13.07;9.00;;;;;;;2.01;73.98;98566.44;5102187;28;20079;-65
2021/01/08 02:05:20;;;;;;;12.63;8.45;;;;;;;2.05;74.05;98565.19;5101738;28;20054;-65
2021/01/08 02:07:58;;;;;;;11.20;8.13;;;;;;;1.97;73.91;98573.72;5103706;28;20048;-65
2021/01/08 02:10:28;;;;;;;12.85;9.15;;;;;;;1.97;73.97;98574.53;5103383;28;20040;-65
2021/01/08 02:12:59;;;;;;;11.18;7.28;;;;;;;1.91;73.89;98569.06;5102764;28;20505;-65
2021/01/08 02:15:28;;;;;;;12.48;8.52;;;;;;;1.93;73.92;98565.38;5102744;28;20048;-65
2021/01/08 02:17:56;;;;;;;12.40;8.32;;;;;;;1.99;74.05;98567.38;5101935;28;20441;-65
2021/01/08 02:20:26;;;;;;;10.80;8.35;;;;;;;2.08;73.98;98564.88;5102463;28;20046;-65
2021/01/08 02:23:00;;;;;;;10.68;7.72;;;;;;;2.16;73.74;98558.00;5101670;28;20055;-65
2021/01/08 02:25:31;;;;;;;10.10;7.60;;;;;;;2.06;73.56;98559.00;5102345;28;20044;-65
2021/01/08 02:28:17;;;;;;;11.50;8.18;;;;;;;2.08;73.42;98563.13;5097963;28;20055;-64
2021/01/08 02:30:44;;;;;;;13.23;8.23;;;;;;;2.12;73.55;98558.41;5098392;28;20116;-64
2021/01/08 02:33:13;;;;;;;11.55;7.82;;;;;;;2.16;73.29;98560.63;5098654;28;20050;-65
2021/01/08 02:35:40;;;;;;;10.10;7.60;;;;;;;2.13;73.26;98560.06;5104018;28;20044;-64
2021/01/08 02:38:08;;;;;;;12.30;8.18;;;;;;;2.10;73.39;98562.97;5104628;28;20056;-64
2021/01/08 02:40:36;;;;;;;13.55;9.32;;;;;;;2.14;73.55;98556.50;5103636;28;20036;-64
2021/01/08 02:43:05;;;;;;;13.02;9.00;;;;;;;2.20;73.44;98559.34;5104138;28;20044;-64
2021/01/08 02:45:33;;;;;;;12.38;8.13;;;;;;;2.22;73.81;98560.00;5103707;28;20032;-65
2021/01/08 02:48:00;;;;;;;12.63;8.35;;;;;;;2.18;73.55;98557.84;5102629;28;20107;-64
2021/01/08 02:50:27;;;;;;;12.07;7.97;;;;;;;2.15;73.76;98555.53;5103049;28;20040;-64
2021/01/08 02:52:58;;;;;;;10.68;7.97;;;;;;;2.17;73.56;98561.44;5104137;28;20050;-66
2021/01/08 02:55:30;;;;;;;12.02;8.13;;;;;;;2.09;73.58;98564.75;5104293;28;20524;-65
2021/01/08 02:58:00;;;;;;;9.73;7.28;;;;;;;2.04;73.40;98558.31;5103840;28;20048;-65
2021/01/08 03:00:29;;;;;;;11.25;7.65;;;;;;;1.97;73.74;98558.91;5104080;28;20035;-65
2021/01/08 03:02:58;;;;;;;11.10;8.20;;;;;;;2.06;73.98;98553.78;5103994;28;20028;-65
2021/01/08 03:05:27;;;;;;;11.45;7.88;;;;;;;2.02;73.78;98555.03;5102791;28;20044;-65
2021/01/08 03:07:54;;;;;;;11.20;7.68;;;;;;;1.96;73.81;98549.44;5102677;28;20044;-65
2021/01/08 03:10:21;;;;;;;11.98;7.88;;;;;;;1.98;73.89;98554.50;5102136;28;20043;-66
2021/01/08 03:12:55;;;;;;;9.20;7.55;;;;;;;1.99;73.86;98561.34;5101532;28;20050;-65
2021/01/08 03:15:23;;;;;;;10.48;7.70;;;;;;;1.97;74.17;98552.88;5101916;28;20048;-65
2021/01/08 03:17:50;;;;;;;10.30;8.07;;;;;;;2.09;74.27;98559.53;5102890;28;20572;-64
2021/01/08 03:20:17;;;;;;;10.57;8.00;;;;;;;2.19;73.88;98549.06;5100268;28;20094;-64
2021/01/08 03:22:43;;;;;;;12.75;8.48;;;;;;;2.14;74.03;98548.66;5100696;28;20040;-64
2021/01/08 03:25:11;;;;;;;11.90;8.50;;;;;;;2.09;74.20;98549.13;5099854;28;20052;-65
2021/01/08 03:27:38;;;;;;;10.93;8.02;;;;;;;2.12;74.27;98547.97;5101962;28;20079;-64
2021/01/08 03:30:07;;;;;;;10.88;8.07;;;;;;;2.06;74.34;98543.34;5100513;28;20031;-65
2021/01/08 03:32:37;;;;;;;11.10;8.45;;;;;;;1.99;74.50;98546.53;5101222;28;20105;-65
2021/01/08 03:35:05;;;;;;;11.10;8.43;;;;;;;2.03;74.62;98544.47;5099377;28;20040;-65
2021/01/08 03:37:32;;;;;;;11.52;8.35;;;;;;;1.98;74.72;98542.28;5100965;28;20044;-65
2021/01/08 03:39:59;;;;;;;11.73;8.38;;;;;;;1.95;74.91;98547.78;5101730;28;20156;-65
2021/01/08 03:42:26;;;;;;;11.68;8.15;;;;;;;1.96;74.87;98544.22;5101084;28;20040;-66
2021/01/08 03:44:52;;;;;;;10.82;7.90;;;;;;;1.95;74.93;98547.78;5100332;28;20071;-65
2021/01/08 03:47:19;;;;;;;9.63;7.80;;;;;;;1.93;75.06;98551.53;5098975;28;20044;-66
2021/01/08 03:49:47;;;;;;;9.75;7.22;;;;;;;1.99;75.19;98550.94;5098845;28;20039;-65
2021/01/08 03:52:13;;;;;;;10.25;8.05;;;;;;;2.06;75.02;98540.75;5097191;28;20055;-65
2021/01/08 03:54:40;;;;;;;9.95;7.10;;;;;;;1.96;74.93;98546.03;5095777;28;20593;-65
2021/01/08 03:57:08;;;;;;;9.45;7.85;;;;;;;1.93;74.98;98544.50;5095937;28;20501;-66
2021/01/08 03:59:34;;;;;;;8.75;7.22;;;;;;;1.94;75.02;98543.53;5095876;28;20517;-66
2021/01/08 04:02:05;;;;;;;8.45;6.50;;;;;;;1.90;75.04;98543.97;5095742;28;20513;-65
2021/01/08 04:04:32;;;;;;;9.35;6.63;;;;;;;1.97;75.06;98551.09;5096837;28;20044;-65
2021/01/08 04:07:00;;;;;;;8.18;6.72;;;;;;;2.04;74.86;98542.66;5094853;28;20134;-65
2021/01/08 04:09:26;;;;;;;8.20;6.03;;;;;;;1.92;74.70;98550.69;5096378;28;20122;-65
2021/01/08 04:11:53;;;;;;;9.85;6.45;;;;;;;1.84;74.97;98547.16;5096320;28;20074;-65
2021/01/08 04:14:20;;;;;;;8.80;7.05;;;;;;;1.81;75.23;98544.84;5095021;28;20485;-65
2021/01/08 04:16:47;;;;;;;9.38;6.95;;;;;;;1.79;75.14;98541.53;5096337;28;20470;-65
2021/01/08 04:19:14;;;;;;;10.50;6.88;;;;;;;1.74;75.56;98544.59;5096138;28;20091;-65
2021/01/08 04:21:40;;;;;;;9.63;7.88;;;;;;;1.79;75.63;98541.53;5098832;28;20127;-66
2021/01/08 04:24:09;;;;;;;8.75;6.80;;;;;;;1.80;75.81;98549.25;5106959;28;20502;-65
2021/01/08 04:26:36;;;;;;;8.70;6.78;;;;;;;1.78;75.44;98553.75;5111359;28;20042;-65
2021/01/08 04:29:02;;;;;;;8.10;6.78;;;;;;;1.78;75.45;98545.94;5106545;28;20066;-65
2021/01/08 04:31:29;;;;;;;7.65;5.65;;;;;;;1.65;75.34;98545.44;5101586;28;20040;-65
2021/01/08 04:33:56;;;;;;;7.43;6.18;;;;;;;1.63;75.37;98540.38;5100937;28;20070;-65
2021/01/08 04:36:23;;;;;;;11.27;6.80;;;;;;;1.72;75.34;98542.13;5101126;28;20083;-65
2021/01/08 04:38:50;;;;;;;7.38;5.88;;;;;;;1.66;75.32;98540.09;5100109;28;20047;-65
2021/01/08 04:41:17;;;;;;;10.35;6.63;;;;;;;1.75;75.55;98533.19;5099838;28;20051;-65
2021/01/08 04:43:44;;;;;;;7.93;6.18;;;;;;;1.75;75.02;98538.41;5101536;28;20044;-65
2021/01/08 04:46:18;;;;;;;6.10;5.45;;;;;;;1.80;75.00;98533.59;5102728;28;20496;-65
2021/01/08 04:48:45;;;;;;;6.43;4.78;;;;;;;1.78;74.53;98534.69;5104548;28;20445;-65
2021/01/08 04:51:12;;;;;;;5.88;5.30;;;;;;;1.73;74.42;98528.13;5104263;28;20058;-65
2021/01/08 04:53:39;;;;;;;6.60;5.53;;;;;;;1.72;74.70;98529.09;5106549;28;20494;-65
2021/01/08 04:56:08;;;;;;;7.38;5.88;;;;;;;1.75;74.61;98527.97;5105674;28;20054;-65
2021/01/08 04:58:36;;;;;;;7.38;5.95;;;;;;;1.74;74.49;98529.75;5103900;28;20142;-65
2021/01/08 05:01:04;;;;;;;6.07;5.07;;;;;;;1.80;74.44;98527.56;5106690;28;20100;-65
2021/01/08 05:03:31;;;;;;;7.95;5.10;;;;;;;1.78;74.28;98537.31;5105749;28;20048;-65
2021/01/08 05:05:59;;;;;;;8.45;5.63;;;;;;;1.76;74.29;98539.25;5104379;28;20058;-65
2021/01/08 05:08:26;;;;;;;7.90;5.63;;;;;;;1.80;74.49;98538.00;5105263;28;20051;-65
2021/01/08 05:10:55;;;;;;;9.10;5.60;;;;;;;1.78;74.43;98543.34;5105402;28;20059;-65
2021/01/08 05:13:33;;;;;;;6.07;5.32;;;;;;;1.81;74.44;98544.84;5103776;28;20130;-65
2021/01/08 05:16:02;;;;;;;6.70;5.03;;;;;;;1.85;74.47;98547.03;5105831;28;20052;-65
2021/01/08 05:18:31;;;;;;;6.72;5.63;;;;;;;1.81;74.49;98542.25;5104186;28;20059;-65
2021/01/08 05:20:58;;;;;;;7.05;5.85;;;;;;;1.84;74.60;98552.38;5106472;28;20040;-66
2021/01/08 05:23:27;;;;;;;6.53;5.68;;;;;;;1.72;74.42;98539.53;5104757;28;20091;-65
2021/01/08 05:25:54;;;;;;;8.80;6.18;;;;;;;1.71;74.58;98548.31;5103004;28;20044;-65
2021/01/08 05:28:21;;;;;;;6.75;5.40;;;;;;;1.76;74.68;98545.28;5102822;28;20124;-65
2021/01/08 05:30:48;;;;;;;6.65;5.30;;;;;;;1.72;74.53;98549.13;5101953;28;20043;-65
2021/01/08 05:33:16;;;;;;;7.47;6.30;;;;;;;1.73;74.83;98550.78;5101171;28;20076;-66
2021/01/08 05:35:44;;;;;;;6.28;5.63;;;;;;;1.78;74.73;98550.34;5098107;28;20050;-65
2021/01/08 05:38:11;;;;;;;7.55;6.00;;;;;;;1.76;74.51;98555.69;5108778;28;20040;-65
2021/01/08 05:40:39;;;;;;;8.73;6.60;;;;;;;1.69;74.42;98555.44;5107194;28;20044;-65
2021/01/08 05:43:06;;;;;;;7.78;5.68;;;;;;;1.69;74.61;98552.84;5104448;28;20044;-65
2021/01/08 05:45:33;;;;;;;8.57;5.55;;;;;;;1.72;74.36;98554.34;5105495;28;20058;-65
2021/01/08 05:48:03;;;;;;;6.22;5.43;;;;;;;1.74;73.99;98562.81;5101166;28;20043;-65
2021/01/08 05:50:31;;;;;;;8.07;5.95;;;;;;;1.78;74.04;98551.16;5099006;28;20040;-65
2021/01/08 05:53:03;;;;;;;8.20;6.38;;;;;;;1.73;73.86;98556.78;5097173;28;20044;-65
2021/01/08 05:55:34;;;;;;;9.98;5.43;;;;;;;1.84;73.73;98558.41;5094826;28;20068;-65
2021/01/08 05:58:00;;;;;;;6.82;5.22;;;;;;;1.79;73.53;98552.78;5101089;28;20052;-65
2021/01/08 06:00:28;;;;;;;8.75;5.78;;;;;;;1.90;73.52;98555.22;5100164;28;20046;-65
2021/01/08 06:02:56;;;;;;;6.93;5.38;;;;;;;1.91;73.20;98556.84;5101188;28;20048;-65
2021/01/08 06:05:26;;;;;;;6.45;5.30;;;;;;;1.89;73.03;98558.81;5101915;28;20470;-65
2021/01/08 06:07:57;;;;;;;6.78;5.30;;;;;;;1.89;72.81;98557.97;5104084;28;20466;-65
2021/01/08 06:10:25;;;;;;;6.40;5.50;;;;;;;1.88;72.73;98557.16;5105151;28;20032;-65
2021/01/08 06:12:52;;;;;;;7.53;5.28;;;;;;;1.84;72.28;98561.03;5104566;28;20036;-65
2021/01/08 06:15:20;;;;;;;8.02;5.28;;;;;;;1.84;72.22;98568.03;5102735;28;20105;-65
2021/01/08 06:17:48;;;;;;;7.53;5.38;;;;;;;1.82;72.46;98568.16;5103827;28;20059;-65
2021/01/08 06:20:15;;;;;;;7.45;5.90;;;;;;;1.81;72.42;98574.34;5102860;28;20512;-65
2021/01/08 06:22:43;;;;;;;8.13;5.40;;;;;;;1.80;72.17;98572.69;5103641;28;20060;-65
2021/01/08 06:25:12;;;;;;;9.50;5.93;;;;;;;1.81;72.28;98569.13;5104134;28;20039;-65
2021/01/08 06:27:45;;;;;;;7.68;5.25;;;;;;;1.86;72.37;98564.28;5104415;28;20478;-65
2021/01/08 06:30:21;;;;;;;6.47;5.38;;;;;;;1.87;72.17;98565.94;5101098;28;20048;-65
2021/01/08 06:32:48;;;;;;;8.23;5.63;;;;;;;1.80;72.04;98575.31;5104095;28;20713;-65
2021/01/08 06:35:18;;;;;;;12.63;6.45;;;;;;;1.69;72.28;98578.06;5104027;28;20440;-65
2021/01/08 06:37:45;;;;;;;7.22;5.40;;;;;;;1.63;72.48;98579.47;5104276;28;20105;-65
2021/01/08 06:40:13;;;;;;;8.15;5.75;;;;;;;1.63;73.01;98586.44;5104212;28;20645;-65
2021/01/08 06:42:45;;;;;;;7.95;6.07;;;;;;;1.68;73.31;98584.25;5104401;28;20036;-65
2021/01/08 06:45:14;;;;;;;8.38;5.97;;;;;;;1.68;73.29;98581.66;5100677;28;20496;-65
2021/01/08 06:47:46;;;;;;;12.45;6.55;;;;;;;1.63;73.37;98582.06;5099093;28;20573;-65
2021/01/08 06:50:18;;;;;;;9.63;6.35;;;;;;;1.57;73.55;98581.81;5097352;28;20044;-65
2021/01/08 06:52:46;;;;;;;10.30;6.47;;;;;;;1.44;73.64;98590.75;5098985;28;20040;-65
2021/01/08 06:55:17;;;;;;;9.20;6.10;;;;;;;1.47;74.00;98594.88;5101323;28;20071;-65
2021/01/08 06:57:52;;;;;;;10.30;6.70;;;;;;;1.48;74.09;98592.09;5103902;28;20051;-65
2021/01/08 07:00:27;;;;;;;9.90;6.95;;;;;;;1.42;74.05;98591.84;5103129;28;20066;-65
2021/01/08 07:03:00;;;;;;;9.35;7.05;;;;;;;1.38;74.53;98593.91;5103547;28;20040;-65
2021/01/08 07:05:27;;;;;;;13.00;7.10;;;;;;;1.37;74.95;98597.47;5102524;28;20490;-65
2021/01/08 07:07:55;;;;;;;8.98;6.75;;;;;;;1.31;75.40;98602.44;5102230;28;20047;-65
2021/01/08 07:10:23;;;;;;;10.60;7.05;;;;;;;1.22;75.64;98604.91;5102773;28;20044;-66
2021/01/08 07:12:54;;;;;;;11.35;8.05;;;;;;;1.16;76.06;98602.00;5103611;28;20123;-65
2021/01/08 07:15:21;;;;;;;10.38;7.53;;;;;;;1.20;76.58;98619.00;5102730;28;20436;-65
2021/01/08 07:17:54;;;;;;;11.73;7.55;;;;;;;1.17;76.71;98611.47;5103333;28;20056;-65
2021/01/08 07:20:22;;;;;;;10.70;8.27;;;;;;;1.21;77.00;98615.44;5102630;28;20044;-66
2021/01/08 07:22:54;;;;;;;10.57;8.05;;;;;;;1.22;77.00;98615.31;5100852;28;20284;-65
2021/01/08 07:25:24;;;;;;;13.15;7.72;;;;;;;1.23;77.03;98616.97;5099848;28;20048;-66
2021/01/08 07:27:53;;;;;;;9.80;7.32;;;;;;;1.13;77.09;98621.31;5099482;28;20054;-66
2021/01/08 07:30:21;;;;;;;13.45;8.63;;;;;;;1.14;76.96;98616.94;5101941;28;20036;-66
2021/01/08 07:32:49;;;;;;;13.43;8.63;;;;;;;1.04;77.01;98622.16;5101189;28;20040;-66
2021/01/08 07:35:23;;;;;;;15.85;7.90;;;;;;;1.02;77.26;98624.09;5101018;28;20062;-65
2021/01/08 07:38:01;;;;;;;15.70;8.90;;;;;;;1.07;77.60;98627.09;5101702;28;20048;-65
2021/01/08 07:40:30;;;;;;;15.32;9.30;;;;;;;1.10;77.73;98632.03;5100433;28;20032;-65
2021/01/08 07:42:59;;;;;;;14.52;8.55;;;;;;;1.15;77.78;98632.44;5100305;28;20048;-65
2021/01/08 07:45:48;;;;;;;12.30;8.13;;;;;;;1.17;77.70;98630.50;5100047;28;20044;-65
2021/01/08 07:48:23;;;;;;;13.02;9.10;;;;;;;1.18;77.73;98641.75;5101783;28;20048;-65
2021/01/08 07:50:54;;;;;;;12.73;8.95;;;;;;;1.11;77.92;98645.88;5100728;28;20052;-65
2021/01/08 07:53:47;;;;;;;15.65;8.52;;;;;;;1.08;77.97;98651.34;5100337;28;20386;-65
2021/01/08 07:56:17;;;;;;;13.13;8.60;;;;;;;1.01;77.89;98650.25;5100296;28;20067;-65
2021/01/08 07:58:45;;;;;;;15.50;9.43;;;;;;;1.02;78.25;98651.88;5102331;28;20134;-65
2021/01/08 08:01:12;;;;;;;14.52;9.57;;;;;;;1.03;78.51;98656.16;5101075;28;20043;-66
2021/01/08 08:03:41;;;;;;;16.20;9.95;;;;;;;1.06;78.39;98661.06;5101040;28;20439;-65
2021/01/08 08:06:08;;;;;;;15.18;10.07;;;;;;;1.06;78.67;98669.72;5100546;28;20139;-66
2021/01/08 08:08:40;;;;;;;14.40;9.90;;;;;;;1.09;78.85;98668.59;5104749;28;20494;-66
2021/01/08 08:11:12;;;;;;;14.45;8.60;;;;;;;1.08;78.76;98673.00;5101537;28;20512;-66
2021/01/08 08:13:40;;;;;;;17.02;9.25;;;;;;;0.97;78.13;98678.31;5100380;28;20072;-66
2021/01/08 08:16:07;;;;;;;12.50;8.95;;;;;;;1.02;78.35;98683.97;5099140;28;20052;-67
2021/01/08 08:18:49;;;;;;;14.23;9.27;;;;;;;1.11;78.09;98685.75;5099285;28;20078;-66
2021/01/08 08:21:20;;;;;;;16.38;9.80;;;;;;;1.26;78.08;98690.53;5099269;28;20074;-66
2021/01/08 08:23:54;;;;;;;16.55;10.27;;;;;;;1.30;77.55;98692.72;5100074;28;20055;-66
2021/01/08 08:26:22;;;;;;;;;;;;;;;1.30;77.12;98692.72;5098351;28;20036;-66
2021/01/08 08:28:59;;;;;;;14.60;8.85;;;;;;;1.35;77.10;98697.56;5098222;28;19919;-67
2021/01/08 08:31:28;;;;;;;13.40;9.57;;;;;;;1.34;76.57;98701.91;5097355;28;20130;-66
2021/01/08 08:33:55;;;;;;;15.50;10.07;;;;;;;1.38;76.46;98705.06;5096938;28;20050;-66
2021/01/08 08:36:22;;;;;;;18.50;10.52;;;;;;;1.39;76.43;98702.34;5096526;28;20511;-66
2021/01/08 08:38:58;;;;;;;14.68;9.25;;;;;;;1.35;76.24;98703.59;5099020;28;20040;-66
2021/01/08 08:41:25;;;;;;;15.30;10.30;;;;;;;1.29;76.14;98706.72;5098955;28;20048;-66
2021/01/08 08:44:04;;;;;;;16.15;10.40;;;;;;;1.24;75.97;98707.13;5098864;28;20508;-66
2021/01/08 08:46:48;;;;;;;13.75;9.27;;;;;;;1.26;76.35;98708.78;5097498;28;20168;-65
2021/01/08 08:49:16;;;;;;;16.35;11.57;;;;;;;1.30;76.62;98710.13;5097580;28;20044;-66
2021/01/08 08:51:45;;;;;;;15.38;9.55;;;;;;;1.28;76.44;98705.09;5097728;28;20166;-65
2021/01/08 08:54:12;;;;;;;14.45;10.25;;;;;;;1.36;76.63;98722.63;5097497;28;20509;-65
2021/01/08 08:56:40;;;;;;;15.63;9.57;;;;;;;1.44;76.31;98720.19;5099415;28;20091;-65
2021/01/08 08:59:08;;;;;;;16.88;9.85;;;;;;;1.49;76.13;98718.78;5099774;28;20065;-66
2021/01/08 09:01:38;;;;;;;13.63;9.82;;;;;;;1.53;75.73;98715.91;5098877;28;20048;-65
2021/01/08 09:04:06;;;;;;;14.05;9.27;;;;;;;1.56;75.38;98715.66;5099400;28;20447;-65
2021/01/08 09:06:36;;;;;;;19.63;10.55;;;;;;;1.55;75.34;98720.03;5099859;28;20043;-66
2021/01/08 09:09:21;;;;;;;14.38;9.75;;;;;;;1.54;75.42;98715.78;5099744;28;20123;-65
2021/01/08 09:11:56;;;;;;;16.90;9.60;;;;;;;1.61;75.21;98722.09;5099917;28;20048;-66
2021/01/08 09:14:30;;;;;;;13.30;9.80;;;;;;;1.52;75.04;98720.31;5100325;28;20060;-66
2021/01/08 09:17:03;;;;;;;14.13;10.23;;;;;;;1.64;75.37;98718.41;5100834;28;20078;-66
2021/01/08 09:19:39;;;;;;;17.50;11.13;;;;;;;1.70;75.08;98717.81;5102094;28;20052;-66
2021/01/08 09:22:08;;;;;;;15.45;10.40;;;;;;;1.78;74.84;98728.38;5101503;28;20121;-66
2021/01/08 09:24:37;;;;;;;13.35;8.88;;;;;;;1.84;74.49;98733.06;5099783;28;20083;-66
2021/01/08 09:27:07;;;;;;;14.40;8.98;;;;;;;1.80;74.28;98731.69;5101219;28;20036;-66
2021/01/08 09:29:36;;;;;;;13.30;9.88;;;;;;;1.80;74.47;98728.25;5102115;28;20063;-66
2021/01/08 09:32:09;;;;;;;14.80;10.65;;;;;;;1.88;74.65;98728.41;5103890;28;20054;-67
2021/01/08 09:34:37;;;;;;;17.55;10.63;;;;;;;1.99;74.69;98729.03;5108637;28;20047;-67
2021/01/08 09:37:15;;;;;;;15.38;10.70;;;;;;;2.04;74.80;98733.84;5106473;28;20063;-67
2021/01/08 09:39:43;;;;;;;13.20;9.25;;;;;;;1.95;74.74;98740.72;5103625;28;20050;-67
2021/01/08 09:42:13;;;;;;;17.90;10.45;;;;;;;1.86;74.55;98736.34;5103832;28;20493;-68
2021/01/08 09:44:41;;;;;;;19.75;10.98;;;;;;;1.97;74.91;98748.41;5101424;28;20040;-67
2021/01/08 09:47:10;;;;;;;16.27;10.50;;;;;;;1.98;74.47;98747.44;5100309;28;20139;-67
2021/01/08 09:49:39;;;;;;;15.25;9.63;;;;;;;1.90;74.47;98744.69;5101029;28;20091;-67
2021/01/08 09:52:07;;;;;;;16.70;10.27;;;;;;;1.93;74.36;98747.88;5100708;28;20036;-66
2021/01/08 09:54:44;;;;;;;17.70;10.60;;;;;;;1.88;74.42;98746.66;5101174;28;20044;-67
2021/01/08 09:57:24;;;;;;;17.90;11.05;;;;;;;1.82;74.21;98750.59;5099071;28;20076;-67
2021/01/08 10:00:00;;;;;;;18.30;11.93;;;;;;;1.72;74.68;98750.63;5100605;28;20074;-67
2021/01/08 10:02:36;;;;;;;17.48;10.50;;;;;;;1.77;74.83;98757.22;5101615;28;20044;-68
2021/01/08 10:05:04;;;;;;;15.15;10.70;;;;;;;1.61;74.88;98755.13;5101189;28;20044;-67
2021/01/08 10:07:41;;;;;;;16.45;10.70;;;;;;;1.64;75.22;98757.47;5101150;28;20044;-67
2021/01/08 10:10:10;;;;;;;15.75;10.32;;;;;;;1.67;75.21;98763.25;5099728;28;20044;-67
2021/01/08 10:12:44;;;;;;;19.10;12.68;;;;;;;1.78;75.43;98764.88;5099157;28;20048;-67
2021/01/08 10:15:13;;;;;;;17.63;11.27;;;;;;;1.84;75.54;98761.72;5099625;28;20047;-67
2021/01/08 10:17:47;;;;;;;18.13;11.07;;;;;;;1.87;75.35;98773.66;5096793;28;20132;-69
2021/01/08 10:20:15;;;;;;;;;;;;;;;1.97;75.73;98771.88;5095489;28;20040;-66
2021/01/08 10:22:46;;;;;;;15.48;10.80;;;;;;;2.16;75.42;98763.19;5098259;28;19920;-65
2021/01/08 10:25:25;;;;;;;20.27;12.35;;;;;;;2.19;74.82;98773.34;5098489;28;20115;-65
2021/01/08 10:28:22;;;;;;;19.08;11.57;;;;;;;2.10;74.72;98764.56;5096388;28;20105;-66
2021/01/08 10:30:51;;;;;;;19.48;12.57;;;;;;;2.20;74.65;98764.53;5095773;28;20040;-66
2021/01/08 10:33:22;;;;;;;19.33;12.52;;;;;;;2.22;74.70;98765.25;5096315;28;20040;-66
2021/01/08 10:35:51;;;;;;;15.93;11.07;;;;;;;2.13;74.23;98763.50;5095913;28;20494;-66
2021/01/08 10:38:18;;;;;;;22.88;14.40;;;;;;;2.11;74.48;98762.78;5095443;28;20067;-66
2021/01/08 10:40:45;;;;;;;38.55;25.10;;;;;;;2.03;74.52;98765.28;5095192;28;20040;-66
2021/01/08 10:43:13;;;;;;;22.45;16.50;;;;;;;2.04;74.37;98759.09;5093134;28;20497;-66
2021/01/08 10:45:43;;;;;;;26.98;16.30;;;;;;;2.08;74.56;98768.28;5094896;28;20114;-66
2021/01/08 10:48:11;;;;;;;22.52;12.52;;;;;;;2.16;74.36;98766.63;5094820;28;20050;-65
2021/01/08 10:50:38;;;;;;;21.50;14.60;;;;;;;2.10;74.16;98755.94;5096094;28;20452;-65
2021/01/08 10:53:05;;;;;;;24.55;16.80;;;;;;;2.26;74.26;98760.56;5096480;28;20055;-65
2021/01/08 10:55:32;;;;;;;19.38;13.10;;;;;;;2.23;74.10;98756.44;5094742;28;20163;-66
2021/01/08 10:57:59;;;;;;;21.50;13.85;;;;;;;2.17;74.30;98757.03;5094577;28;20528;-66
2021/01/08 11:00:25;;;;;;;20.55;14.10;;;;;;;2.18;74.64;98766.50;5094737;28;20512;-65
2021/01/08 11:02:53;;;;;;;22.58;15.80;;;;;;;2.20;74.65;98756.72;5094498;28;20429;-65
2021/01/08 11:05:21;;;;;;;23.15;17.02;;;;;;;2.25;74.74;98756.34;5094401;28;20067;-65
2021/01/08 11:07:48;;;;;;;23.92;14.68;;;;;;;2.27;74.72;98757.00;5095700;28;20040;-65
2021/01/08 11:10:16;;;;;;;18.08;13.05;;;;;;;2.16;74.38;98750.16;5094938;28;20124;-65
2021/01/08 11:12:43;;;;;;;18.73;12.55;;;;;;;2.09;74.74;98756.91;5094402;28;20040;-65
2021/01/08 11:15:10;;;;;;;22.83;14.18;;;;;;;1.98;74.85;98750.03;5094249;28;20059;-65
2021/01/08 11:17:37;;;;;;;19.17;13.55;;;;;;;1.95;75.12;98745.91;5094073;28;20040;-65
2021/01/08 11:20:06;;;;;;;22.58;15.82;;;;;;;1.99;75.54;98747.28;5094038;28;20044;-65
2021/01/08 11:22:34;;;;;;;26.30;19.65;;;;;;;1.96;75.02;98741.56;5094086;28;20430;-65
2021/01/08 11:25:01;;;;;;;22.25;16.63;;;;;;;2.09;75.28;98749.91;5093623;28;20054;-65
2021/01/08 11:27:28;;;;;;;16.35;12.18;;;;;;;2.05;75.08;98745.94;5093723;28;20051;-66
2021/01/08 11:29:55;;;;;;;19.35;13.60;;;;;;;2.16;74.98;98740.56;5092219;28;20541;-66
2021/01/08 11:32:21;;;;;;;16.00;11.65;;;;;;;2.19;74.75;98745.47;5093707;28;20048;-65
2021/01/08 11:34:48;;;;;;;18.92;13.30;;;;;;;2.05;74.80;98745.09;5091730;28;20418;-66
2021/01/08 11:37:15;;;;;;;20.45;13.38;;;;;;;2.03;75.20;98745.22;5091949;28;20509;-66
2021/01/08 11:39:47;;;;;;;23.40;13.38;;;;;;;1.99;75.05;98741.25;5093264;28;20505;-66
2021/01/08 11:42:15;;;;;;;17.02;12.57;;;;;;;1.93;75.27;98736.63;5092026;28;20044;-67
2021/01/08 11:44:41;;;;;;;19.38;12.80;;;;;;;1.93;75.22;98741.81;5093074;28;20048;-67